Saint-Pierre, Reunion
Current Conditions -  °F | °C
As of 8:00 AM on Sunday 25 Jan 2015 (Local Time) from FMEP Reporting Station
Clear Clear  
Wind Chill: 84°   Ceiling: Unl
Heat Index: 84°   Visibility: 6mi
Dew Point: -26°   Wind: 6mph
Humidity: 1%   Direction: 170°S
Pressure: 29.88"   Gusts: NA
Location:  21.32°S, 55.47°E
Report Text: FMEP 250400Z AUTO 17005KT 140V220 9999 NCD 29/M32 Q1012
Loading
Personal Weather Stations






























Interactive Weather Map New forecast layout! Learn more

10-Day Weather Forecast

Advertisements
Track Severe Weather on mobile